sensor_id;sensor_type;location;lat;lon;timestamp;P1;durP1;ratioP1;P2;durP2;ratioP2
16669;SDS011;8448;52.034;5.158;2022-07-23T00:00:15;3.38;;;2.40;;
16669;SDS011;8448;52.034;5.158;2022-07-23T00:02:43;3.30;;;2.53;;
16669;SDS011;8448;52.034;5.158;2022-07-23T00:05:11;3.67;;;2.47;;
16669;SDS011;8448;52.034;5.158;2022-07-23T00:07:38;3.90;;;2.50;;
16669;SDS011;8448;52.034;5.158;2022-07-23T00:10:08;4.07;;;2.80;;
16669;SDS011;8448;52.034;5.158;2022-07-23T00:12:35;2.55;;;2.35;;
16669;SDS011;8448;52.034;5.158;2022-07-23T00:15:04;4.03;;;2.90;;
16669;SDS011;8448;52.034;5.158;2022-07-23T00:17:31;3.42;;;2.60;;
16669;SDS011;8448;52.034;5.158;2022-07-23T00:19:59;3.13;;;2.70;;
16669;SDS011;8448;52.034;5.158;2022-07-23T00:22:27;4.03;;;2.88;;
16669;SDS011;8448;52.034;5.158;2022-07-23T00:24:54;3.20;;;2.80;;
16669;SDS011;8448;52.034;5.158;2022-07-23T00:27:23;5.57;;;3.42;;
16669;SDS011;8448;52.034;5.158;2022-07-23T00:29:50;4.05;;;3.20;;
16669;SDS011;8448;52.034;5.158;2022-07-23T00:32:17;5.43;;;3.03;;
16669;SDS011;8448;52.034;5.158;2022-07-23T00:34:44;3.90;;;3.00;;
16669;SDS011;8448;52.034;5.158;2022-07-23T00:37:12;4.22;;;2.90;;
16669;SDS011;8448;52.034;5.158;2022-07-23T00:39:39;4.65;;;2.95;;
16669;SDS011;8448;52.034;5.158;2022-07-23T00:42:06;5.00;;;2.97;;
16669;SDS011;8448;52.034;5.158;2022-07-23T00:44:35;4.13;;;3.30;;
16669;SDS011;8448;52.034;5.158;2022-07-23T00:47:02;3.25;;;2.92;;
16669;SDS011;8448;52.034;5.158;2022-07-23T00:49:30;4.40;;;3.13;;
16669;SDS011;8448;52.034;5.158;2022-07-23T00:51:58;5.63;;;3.35;;
16669;SDS011;8448;52.034;5.158;2022-07-23T00:54:28;4.30;;;2.95;;
16669;SDS011;8448;52.034;5.158;2022-07-23T00:56:56;5.28;;;3.20;;
16669;SDS011;8448;52.034;5.158;2022-07-23T00:59:23;3.30;;;3.00;;
16669;SDS011;8448;52.034;5.158;2022-07-23T01:01:52;3.88;;;2.72;;
16669;SDS011;8448;52.034;5.158;2022-07-23T01:04:19;3.60;;;3.00;;
16669;SDS011;8448;52.034;5.158;2022-07-23T01:06:46;4.50;;;3.30;;
16669;SDS011;8448;52.034;5.158;2022-07-23T01:09:14;5.00;;;3.17;;
16669;SDS011;8448;52.034;5.158;2022-07-23T01:11:41;3.47;;;3.13;;
16669;SDS011;8448;52.034;5.158;2022-07-23T01:14:11;4.30;;;3.30;;
16669;SDS011;8448;52.034;5.158;2022-07-23T01:16:39;3.72;;;3.40;;
16669;SDS011;8448;52.034;5.158;2022-07-23T01:19:09;5.00;;;3.60;;
16669;SDS011;8448;52.034;5.158;2022-07-23T01:21:37;4.70;;;3.58;;
16669;SDS011;8448;52.034;5.158;2022-07-23T01:24:08;5.72;;;3.53;;
16669;SDS011;8448;52.034;5.158;2022-07-23T01:26:40;4.18;;;3.40;;
16669;SDS011;8448;52.034;5.158;2022-07-23T01:29:08;5.30;;;3.58;;
16669;SDS011;8448;52.034;5.158;2022-07-23T01:31:36;5.80;;;3.05;;
16669;SDS011;8448;52.034;5.158;2022-07-23T01:34:04;4.40;;;3.20;;
16669;SDS011;8448;52.034;5.158;2022-07-23T01:36:32;5.10;;;3.30;;
16669;SDS011;8448;52.034;5.158;2022-07-23T01:38:59;4.47;;;3.40;;
16669;SDS011;8448;52.034;5.158;2022-07-23T01:41:28;4.57;;;3.13;;
16669;SDS011;8448;52.034;5.158;2022-07-23T01:43:56;3.63;;;3.22;;
16669;SDS011;8448;52.034;5.158;2022-07-23T01:46:24;4.45;;;3.25;;
16669;SDS011;8448;52.034;5.158;2022-07-23T01:48:51;4.40;;;3.47;;
16669;SDS011;8448;52.034;5.158;2022-07-23T01:51:33;4.32;;;3.42;;
16669;SDS011;8448;52.034;5.158;2022-07-23T01:54:07;6.55;;;3.55;;
16669;SDS011;8448;52.034;5.158;2022-07-23T01:56:36;3.92;;;3.47;;
16669;SDS011;8448;52.034;5.158;2022-07-23T01:59:03;4.88;;;3.65;;
16669;SDS011;8448;52.034;5.158;2022-07-23T02:01:31;4.70;;;3.50;;
16669;SDS011;8448;52.034;5.158;2022-07-23T02:03:58;6.70;;;3.42;;
16669;SDS011;8448;52.034;5.158;2022-07-23T02:06:25;6.28;;;3.80;;
16669;SDS011;8448;52.034;5.158;2022-07-23T02:08:53;5.60;;;3.90;;
16669;SDS011;8448;52.034;5.158;2022-07-23T02:11:21;5.00;;;4.00;;
16669;SDS011;8448;52.034;5.158;2022-07-23T02:13:49;5.28;;;3.97;;
16669;SDS011;8448;52.034;5.158;2022-07-23T02:16:17;4.03;;;3.53;;
16669;SDS011;8448;52.034;5.158;2022-07-23T02:18:44;5.45;;;4.00;;
16669;SDS011;8448;52.034;5.158;2022-07-23T02:21:12;4.30;;;3.80;;
16669;SDS011;8448;52.034;5.158;2022-07-23T02:23:39;5.70;;;4.07;;
16669;SDS011;8448;52.034;5.158;2022-07-23T02:26:06;5.03;;;4.00;;
16669;SDS011;8448;52.034;5.158;2022-07-23T02:28:34;6.30;;;4.00;;
16669;SDS011;8448;52.034;5.158;2022-07-23T02:31:03;6.47;;;4.28;;
16669;SDS011;8448;52.034;5.158;2022-07-23T02:33:32;5.32;;;4.05;;
16669;SDS011;8448;52.034;5.158;2022-07-23T02:36:00;5.25;;;4.18;;
16669;SDS011;8448;52.034;5.158;2022-07-23T02:38:27;5.85;;;4.50;;
16669;SDS011;8448;52.034;5.158;2022-07-23T02:40:55;4.85;;;4.35;;
16669;SDS011;8448;52.034;5.158;2022-07-23T02:43:22;5.40;;;4.20;;
16669;SDS011;8448;52.034;5.158;2022-07-23T02:45:49;5.72;;;4.55;;
16669;SDS011;8448;52.034;5.158;2022-07-23T02:48:18;6.90;;;4.32;;
16669;SDS011;8448;52.034;5.158;2022-07-23T02:50:47;7.43;;;3.70;;
16669;SDS011;8448;52.034;5.158;2022-07-23T02:53:21;7.38;;;4.47;;
16669;SDS011;8448;52.034;5.158;2022-07-23T02:55:49;5.22;;;4.40;;
16669;SDS011;8448;52.034;5.158;2022-07-23T02:58:16;7.00;;;4.47;;
16669;SDS011;8448;52.034;5.158;2022-07-23T03:00:43;6.47;;;4.13;;
16669;SDS011;8448;52.034;5.158;2022-07-23T03:03:11;5.85;;;4.50;;
16669;SDS011;8448;52.034;5.158;2022-07-23T03:05:40;5.93;;;4.45;;
16669;SDS011;8448;52.034;5.158;2022-07-23T03:08:07;6.07;;;4.63;;
16669;SDS011;8448;52.034;5.158;2022-07-23T03:10:37;7.30;;;4.30;;
16669;SDS011;8448;52.034;5.158;2022-07-23T03:13:04;5.05;;;4.15;;
16669;SDS011;8448;52.034;5.158;2022-07-23T03:15:31;8.98;;;5.30;;
16669;SDS011;8448;52.034;5.158;2022-07-23T03:17:59;5.87;;;4.50;;
16669;SDS011;8448;52.034;5.158;2022-07-23T03:20:28;6.13;;;4.60;;
16669;SDS011;8448;52.034;5.158;2022-07-23T03:22:56;7.40;;;4.68;;
16669;SDS011;8448;52.034;5.158;2022-07-23T03:25:24;7.22;;;4.93;;
16669;SDS011;8448;52.034;5.158;2022-07-23T03:27:51;6.00;;;4.88;;
16669;SDS011;8448;52.034;5.158;2022-07-23T03:30:18;6.68;;;4.55;;
16669;SDS011;8448;52.034;5.158;2022-07-23T03:32:47;5.72;;;4.32;;
16669;SDS011;8448;52.034;5.158;2022-07-23T03:35:15;6.72;;;4.47;;
16669;SDS011;8448;52.034;5.158;2022-07-23T03:37:49;6.97;;;4.88;;
16669;SDS011;8448;52.034;5.158;2022-07-23T03:40:18;8.63;;;4.63;;
16669;SDS011;8448;52.034;5.158;2022-07-23T03:42:45;9.20;;;5.03;;
16669;SDS011;8448;52.034;5.158;2022-07-23T03:45:13;6.10;;;4.85;;
16669;SDS011;8448;52.034;5.158;2022-07-23T03:47:40;6.28;;;4.60;;
16669;SDS011;8448;52.034;5.158;2022-07-23T03:50:08;7.03;;;5.30;;
16669;SDS011;8448;52.034;5.158;2022-07-23T03:52:36;7.20;;;4.82;;
16669;SDS011;8448;52.034;5.158;2022-07-23T03:55:03;6.90;;;5.00;;
16669;SDS011;8448;52.034;5.158;2022-07-23T03:57:32;6.53;;;4.45;;
16669;SDS011;8448;52.034;5.158;2022-07-23T04:00:00;6.97;;;4.90;;
16669;SDS011;8448;52.034;5.158;2022-07-23T04:02:38;7.10;;;4.80;;
16669;SDS011;8448;52.034;5.158;2022-07-23T04:05:07;6.13;;;4.33;;
16669;SDS011;8448;52.034;5.158;2022-07-23T04:07:35;7.20;;;4.97;;
16669;SDS011;8448;52.034;5.158;2022-07-23T04:10:03;5.30;;;4.50;;
16669;SDS011;8448;52.034;5.158;2022-07-23T04:12:32;5.18;;;4.53;;
16669;SDS011;8448;52.034;5.158;2022-07-23T04:15:01;6.18;;;4.72;;
16669;SDS011;8448;52.034;5.158;2022-07-23T04:17:29;6.53;;;4.55;;
16669;SDS011;8448;52.034;5.158;2022-07-23T04:19:57;7.80;;;4.80;;
16669;SDS011;8448;52.034;5.158;2022-07-23T04:22:30;8.40;;;4.90;;
16669;SDS011;8448;52.034;5.158;2022-07-23T04:24:57;7.32;;;4.93;;
16669;SDS011;8448;52.034;5.158;2022-07-23T04:27:25;6.00;;;4.60;;
16669;SDS011;8448;52.034;5.158;2022-07-23T04:29:53;5.13;;;4.45;;
16669;SDS011;8448;52.034;5.158;2022-07-23T04:32:21;5.00;;;4.37;;
16669;SDS011;8448;52.034;5.158;2022-07-23T04:34:48;8.57;;;4.93;;
16669;SDS011;8448;52.034;5.158;2022-07-23T04:37:17;7.57;;;4.35;;
16669;SDS011;8448;52.034;5.158;2022-07-23T04:39:44;5.68;;;4.35;;
16669;SDS011;8448;52.034;5.158;2022-07-23T04:42:11;6.03;;;4.90;;
16669;SDS011;8448;52.034;5.158;2022-07-23T04:44:40;5.75;;;4.72;;
16669;SDS011;8448;52.034;5.158;2022-07-23T04:47:09;6.50;;;4.45;;
16669;SDS011;8448;52.034;5.158;2022-07-23T04:49:36;7.35;;;4.75;;
16669;SDS011;8448;52.034;5.158;2022-07-23T04:52:04;6.32;;;4.88;;
16669;SDS011;8448;52.034;5.158;2022-07-23T04:54:31;5.80;;;4.22;;
16669;SDS011;8448;52.034;5.158;2022-07-23T04:56:59;6.90;;;5.20;;
16669;SDS011;8448;52.034;5.158;2022-07-23T04:59:26;7.13;;;5.07;;
16669;SDS011;8448;52.034;5.158;2022-07-23T05:01:58;4.75;;;4.28;;
16669;SDS011;8448;52.034;5.158;2022-07-23T05:04:27;7.60;;;4.45;;
16669;SDS011;8448;52.034;5.158;2022-07-23T05:06:55;4.38;;;3.95;;
16669;SDS011;8448;52.034;5.158;2022-07-23T05:09:22;6.32;;;4.75;;
16669;SDS011;8448;52.034;5.158;2022-07-23T05:11:50;7.03;;;4.57;;
16669;SDS011;8448;52.034;5.158;2022-07-23T05:14:19;5.95;;;5.00;;
16669;SDS011;8448;52.034;5.158;2022-07-23T05:16:46;6.65;;;4.65;;
16669;SDS011;8448;52.034;5.158;2022-07-23T05:19:19;6.47;;;4.13;;
16669;SDS011;8448;52.034;5.158;2022-07-23T05:21:48;6.13;;;4.47;;
16669;SDS011;8448;52.034;5.158;2022-07-23T05:24:15;5.93;;;4.25;;
16669;SDS011;8448;52.034;5.158;2022-07-23T05:26:42;5.70;;;4.45;;
16669;SDS011;8448;52.034;5.158;2022-07-23T05:29:09;5.97;;;4.35;;
16669;SDS011;8448;52.034;5.158;2022-07-23T05:31:37;4.95;;;4.20;;
16669;SDS011;8448;52.034;5.158;2022-07-23T05:34:05;7.97;;;4.63;;
16669;SDS011;8448;52.034;5.158;2022-07-23T05:36:33;5.82;;;4.22;;
16669;SDS011;8448;52.034;5.158;2022-07-23T05:39:03;4.40;;;3.55;;
16669;SDS011;8448;52.034;5.158;2022-07-23T05:41:46;5.32;;;3.40;;
16669;SDS011;8448;52.034;5.158;2022-07-23T05:44:13;3.85;;;3.25;;
16669;SDS011;8448;52.034;5.158;2022-07-23T05:46:42;5.22;;;3.42;;
16669;SDS011;8448;52.034;5.158;2022-07-23T05:49:15;3.55;;;3.10;;
16669;SDS011;8448;52.034;5.158;2022-07-23T05:52:06;4.60;;;3.10;;
16669;SDS011;8448;52.034;5.158;2022-07-23T05:54:54;2.80;;;2.50;;
16669;SDS011;8448;52.034;5.158;2022-07-23T05:57:21;3.85;;;2.83;;
16669;SDS011;8448;52.034;5.158;2022-07-23T05:59:48;4.07;;;3.00;;
16669;SDS011;8448;52.034;5.158;2022-07-23T06:02:17;4.32;;;2.85;;
16669;SDS011;8448;52.034;5.158;2022-07-23T06:04:44;4.82;;;2.88;;
16669;SDS011;8448;52.034;5.158;2022-07-23T06:07:20;4.88;;;3.10;;
16669;SDS011;8448;52.034;5.158;2022-07-23T06:09:48;4.22;;;2.53;;
16669;SDS011;8448;52.034;5.158;2022-07-23T06:12:17;3.58;;;2.85;;
16669;SDS011;8448;52.034;5.158;2022-07-23T06:14:45;6.00;;;3.20;;
16669;SDS011;8448;52.034;5.158;2022-07-23T06:17:15;3.03;;;2.65;;
16669;SDS011;8448;52.034;5.158;2022-07-23T06:19:42;3.42;;;2.95;;
16669;SDS011;8448;52.034;5.158;2022-07-23T06:22:09;2.80;;;2.47;;
16669;SDS011;8448;52.034;5.158;2022-07-23T06:24:37;3.40;;;2.50;;
16669;SDS011;8448;52.034;5.158;2022-07-23T06:27:04;4.15;;;2.70;;
16669;SDS011;8448;52.034;5.158;2022-07-23T06:29:32;3.85;;;2.33;;
16669;SDS011;8448;52.034;5.158;2022-07-23T06:32:00;3.90;;;2.45;;
16669;SDS011;8448;52.034;5.158;2022-07-23T06:34:27;2.25;;;2.05;;
16669;SDS011;8448;52.034;5.158;2022-07-23T06:36:55;3.03;;;2.20;;
16669;SDS011;8448;52.034;5.158;2022-07-23T06:39:25;2.50;;;1.90;;
16669;SDS011;8448;52.034;5.158;2022-07-23T06:41:52;4.60;;;2.15;;
16669;SDS011;8448;52.034;5.158;2022-07-23T06:44:35;4.35;;;2.13;;
16669;SDS011;8448;52.034;5.158;2022-07-23T06:47:02;2.90;;;1.83;;
16669;SDS011;8448;52.034;5.158;2022-07-23T06:49:30;2.33;;;1.88;;
16669;SDS011;8448;52.034;5.158;2022-07-23T06:51:57;1.92;;;1.50;;
16669;SDS011;8448;52.034;5.158;2022-07-23T06:54:24;2.80;;;1.60;;
16669;SDS011;8448;52.034;5.158;2022-07-23T06:56:52;2.20;;;1.50;;
16669;SDS011;8448;52.034;5.158;2022-07-23T06:59:19;2.80;;;1.80;;
16669;SDS011;8448;52.034;5.158;2022-07-23T07:01:47;2.67;;;1.73;;
16669;SDS011;8448;52.034;5.158;2022-07-23T07:04:15;3.08;;;2.03;;
16669;SDS011;8448;52.034;5.158;2022-07-23T07:06:42;3.30;;;2.50;;
16669;SDS011;8448;52.034;5.158;2022-07-23T07:09:09;3.00;;;2.25;;
16669;SDS011;8448;52.034;5.158;2022-07-23T07:11:37;2.55;;;2.10;;
16669;SDS011;8448;52.034;5.158;2022-07-23T07:14:04;2.53;;;1.80;;
16669;SDS011;8448;52.034;5.158;2022-07-23T07:16:31;4.43;;;2.30;;
16669;SDS011;8448;52.034;5.158;2022-07-23T07:19:00;3.95;;;2.08;;
16669;SDS011;8448;52.034;5.158;2022-07-23T07:21:27;3.60;;;2.20;;
16669;SDS011;8448;52.034;5.158;2022-07-23T07:23:55;3.50;;;2.50;;
16669;SDS011;8448;52.034;5.158;2022-07-23T07:26:22;4.43;;;2.30;;
16669;SDS011;8448;52.034;5.158;2022-07-23T07:28:49;3.25;;;2.20;;
16669;SDS011;8448;52.034;5.158;2022-07-23T07:31:16;3.97;;;2.30;;
16669;SDS011;8448;52.034;5.158;2022-07-23T07:33:44;3.58;;;2.10;;
16669;SDS011;8448;52.034;5.158;2022-07-23T07:36:12;2.95;;;1.98;;
16669;SDS011;8448;52.034;5.158;2022-07-23T07:38:39;4.88;;;2.20;;
16669;SDS011;8448;52.034;5.158;2022-07-23T07:41:07;4.32;;;1.80;;
16669;SDS011;8448;52.034;5.158;2022-07-23T07:43:35;2.78;;;1.92;;
16669;SDS011;8448;52.034;5.158;2022-07-23T07:46:02;3.83;;;2.13;;
16669;SDS011;8448;52.034;5.158;2022-07-23T07:48:30;2.95;;;1.73;;
16669;SDS011;8448;52.034;5.158;2022-07-23T07:50:57;3.10;;;1.60;;
16669;SDS011;8448;52.034;5.158;2022-07-23T07:53:26;2.72;;;1.63;;
16669;SDS011;8448;52.034;5.158;2022-07-23T07:55:53;4.25;;;1.90;;
16669;SDS011;8448;52.034;5.158;2022-07-23T07:58:20;3.35;;;2.10;;
16669;SDS011;8448;52.034;5.158;2022-07-23T08:00:47;3.30;;;1.80;;
16669;SDS011;8448;52.034;5.158;2022-07-23T08:03:16;2.72;;;2.00;;
16669;SDS011;8448;52.034;5.158;2022-07-23T08:05:43;3.35;;;1.80;;
16669;SDS011;8448;52.034;5.158;2022-07-23T08:08:11;3.25;;;2.00;;
16669;SDS011;8448;52.034;5.158;2022-07-23T08:10:41;2.10;;;1.90;;
16669;SDS011;8448;52.034;5.158;2022-07-23T08:13:10;3.88;;;2.10;;
16669;SDS011;8448;52.034;5.158;2022-07-23T08:15:40;2.30;;;1.70;;
16669;SDS011;8448;52.034;5.158;2022-07-23T08:18:07;2.63;;;1.77;;
16669;SDS011;8448;52.034;5.158;2022-07-23T08:20:35;1.92;;;1.70;;
16669;SDS011;8448;52.034;5.158;2022-07-23T08:23:03;3.97;;;1.95;;
16669;SDS011;8448;52.034;5.158;2022-07-23T08:25:33;3.33;;;1.73;;
16669;SDS011;8448;52.034;5.158;2022-07-23T08:28:03;1.92;;;1.80;;
16669;SDS011;8448;52.034;5.158;2022-07-23T08:30:33;3.70;;;1.60;;
16669;SDS011;8448;52.034;5.158;2022-07-23T08:33:01;2.90;;;1.85;;
16669;SDS011;8448;52.034;5.158;2022-07-23T08:35:30;2.83;;;1.60;;
16669;SDS011;8448;52.034;5.158;2022-07-23T08:37:58;1.95;;;1.65;;
16669;SDS011;8448;52.034;5.158;2022-07-23T08:40:27;2.67;;;1.70;;
16669;SDS011;8448;52.034;5.158;2022-07-23T08:42:56;2.40;;;1.70;;
16669;SDS011;8448;52.034;5.158;2022-07-23T08:45:26;1.73;;;1.63;;
16669;SDS011;8448;52.034;5.158;2022-07-23T08:47:54;3.25;;;1.52;;
16669;SDS011;8448;52.034;5.158;2022-07-23T08:50:24;2.08;;;1.60;;
16669;SDS011;8448;52.034;5.158;2022-07-23T08:52:52;3.33;;;1.67;;
16669;SDS011;8448;52.034;5.158;2022-07-23T08:55:21;2.25;;;1.85;;
16669;SDS011;8448;52.034;5.158;2022-07-23T08:57:50;2.95;;;1.85;;
16669;SDS011;8448;52.034;5.158;2022-07-23T09:00:18;2.65;;;1.77;;
16669;SDS011;8448;52.034;5.158;2022-07-23T09:02:48;2.33;;;1.80;;
16669;SDS011;8448;52.034;5.158;2022-07-23T09:05:16;4.53;;;1.92;;
16669;SDS011;8448;52.034;5.158;2022-07-23T09:08:03;3.03;;;1.90;;
16669;SDS011;8448;52.034;5.158;2022-07-23T09:10:45;2.10;;;1.80;;
16669;SDS011;8448;52.034;5.158;2022-07-23T09:13:24;2.33;;;1.60;;
16669;SDS011;8448;52.034;5.158;2022-07-23T09:15:53;3.85;;;1.75;;
16669;SDS011;8448;52.034;5.158;2022-07-23T09:18:29;3.35;;;1.80;;
16669;SDS011;8448;52.034;5.158;2022-07-23T09:21:07;2.35;;;1.75;;
16669;SDS011;8448;52.034;5.158;2022-07-23T09:23:38;2.88;;;2.20;;
16669;SDS011;8448;52.034;5.158;2022-07-23T09:26:20;3.20;;;1.80;;
16669;SDS011;8448;52.034;5.158;2022-07-23T09:28:57;3.25;;;1.90;;
16669;SDS011;8448;52.034;5.158;2022-07-23T09:31:30;2.75;;;1.50;;
16669;SDS011;8448;52.034;5.158;2022-07-23T09:34:07;3.42;;;1.95;;
16669;SDS011;8448;52.034;5.158;2022-07-23T09:36:39;2.40;;;1.80;;
16669;SDS011;8448;52.034;5.158;2022-07-23T09:39:06;2.22;;;1.67;;
16669;SDS011;8448;52.034;5.158;2022-07-23T09:41:38;2.67;;;1.75;;
16669;SDS011;8448;52.034;5.158;2022-07-23T09:44:08;2.50;;;1.55;;
16669;SDS011;8448;52.034;5.158;2022-07-23T09:46:41;2.78;;;1.80;;
16669;SDS011;8448;52.034;5.158;2022-07-23T09:49:11;2.45;;;1.83;;
16669;SDS011;8448;52.034;5.158;2022-07-23T09:51:44;2.40;;;1.70;;
16669;SDS011;8448;52.034;5.158;2022-07-23T09:54:23;2.28;;;1.73;;
16669;SDS011;8448;52.034;5.158;2022-07-23T09:56:56;2.00;;;1.60;;
16669;SDS011;8448;52.034;5.158;2022-07-23T09:59:25;3.17;;;2.00;;
16669;SDS011;8448;52.034;5.158;2022-07-23T10:01:55;2.90;;;1.67;;
16669;SDS011;8448;52.034;5.158;2022-07-23T10:04:26;1.95;;;1.60;;
16669;SDS011;8448;52.034;5.158;2022-07-23T10:07:23;2.67;;;1.70;;
16669;SDS011;8448;52.034;5.158;2022-07-23T10:10:13;2.28;;;1.60;;
16669;SDS011;8448;52.034;5.158;2022-07-23T10:13:00;2.65;;;1.70;;
16669;SDS011;8448;52.034;5.158;2022-07-23T10:15:41;2.83;;;1.75;;
16669;SDS011;8448;52.034;5.158;2022-07-23T10:18:09;2.67;;;1.50;;
16669;SDS011;8448;52.034;5.158;2022-07-23T10:20:40;2.08;;;1.88;;
16669;SDS011;8448;52.034;5.158;2022-07-23T10:23:09;2.60;;;1.90;;
16669;SDS011;8448;52.034;5.158;2022-07-23T10:25:41;2.63;;;1.90;;
16669;SDS011;8448;52.034;5.158;2022-07-23T10:28:16;3.38;;;1.50;;
16669;SDS011;8448;52.034;5.158;2022-07-23T10:31:00;2.10;;;1.60;;
16669;SDS011;8448;52.034;5.158;2022-07-23T10:33:32;3.88;;;1.60;;
16669;SDS011;8448;52.034;5.158;2022-07-23T10:36:09;3.80;;;1.88;;
16669;SDS011;8448;52.034;5.158;2022-07-23T10:38:51;2.63;;;1.42;;
16669;SDS011;8448;52.034;5.158;2022-07-23T10:41:31;2.38;;;1.73;;
16669;SDS011;8448;52.034;5.158;2022-07-23T10:44:05;2.30;;;1.80;;
16669;SDS011;8448;52.034;5.158;2022-07-23T10:46:33;3.58;;;1.90;;
16669;SDS011;8448;52.034;5.158;2022-07-23T10:49:20;2.30;;;1.40;;
16669;SDS011;8448;52.034;5.158;2022-07-23T10:54:52;1.92;;;1.70;;
16669;SDS011;8448;52.034;5.158;2022-07-23T10:57:21;2.75;;;2.03;;
16669;SDS011;8448;52.034;5.158;2022-07-23T11:02:43;2.13;;;1.60;;
16669;SDS011;8448;52.034;5.158;2022-07-23T11:05:12;2.08;;;1.70;;
16669;SDS011;8448;52.034;5.158;2022-07-23T11:10:54;3.25;;;1.77;;
16669;SDS011;8448;52.034;5.158;2022-07-23T11:13:41;1.80;;;1.70;;
16669;SDS011;8448;52.034;5.158;2022-07-23T11:16:19;2.05;;;1.83;;
16669;SDS011;8448;52.034;5.158;2022-07-23T11:18:57;3.63;;;2.20;;
16669;SDS011;8448;52.034;5.158;2022-07-23T11:21:43;2.67;;;2.25;;
16669;SDS011;8448;52.034;5.158;2022-07-23T11:24:12;2.17;;;1.92;;
16669;SDS011;8448;52.034;5.158;2022-07-23T11:26:44;3.60;;;1.80;;
16669;SDS011;8448;52.034;5.158;2022-07-23T11:32:19;4.38;;;1.80;;
16669;SDS011;8448;52.034;5.158;2022-07-23T11:35:26;3.28;;;2.00;;
16669;SDS011;8448;52.034;5.158;2022-07-23T11:38:02;2.55;;;2.10;;
16669;SDS011;8448;52.034;5.158;2022-07-23T11:40:31;3.38;;;2.20;;
16669;SDS011;8448;52.034;5.158;2022-07-23T11:43:01;3.15;;;2.08;;
16669;SDS011;8448;52.034;5.158;2022-07-23T11:45:32;3.60;;;2.22;;
16669;SDS011;8448;52.034;5.158;2022-07-23T11:48:01;2.30;;;2.10;;
16669;SDS011;8448;52.034;5.158;2022-07-23T11:50:29;3.28;;;2.40;;
16669;SDS011;8448;52.034;5.158;2022-07-23T11:52:56;4.00;;;2.40;;
16669;SDS011;8448;52.034;5.158;2022-07-23T11:55:24;2.38;;;2.03;;
16669;SDS011;8448;52.034;5.158;2022-07-23T11:57:53;2.85;;;2.30;;
16669;SDS011;8448;52.034;5.158;2022-07-23T12:00:23;3.70;;;2.40;;
16669;SDS011;8448;52.034;5.158;2022-07-23T12:02:52;2.85;;;2.30;;
16669;SDS011;8448;52.034;5.158;2022-07-23T12:05:21;2.88;;;2.15;;
16669;SDS011;8448;52.034;5.158;2022-07-23T12:07:50;2.78;;;2.30;;
16669;SDS011;8448;52.034;5.158;2022-07-23T12:10:19;3.65;;;2.53;;
16669;SDS011;8448;52.034;5.158;2022-07-23T12:12:48;3.75;;;2.70;;
16669;SDS011;8448;52.034;5.158;2022-07-23T12:15:18;4.35;;;2.28;;
16669;SDS011;8448;52.034;5.158;2022-07-23T12:17:49;3.67;;;2.45;;
16669;SDS011;8448;52.034;5.158;2022-07-23T12:20:17;3.40;;;2.60;;
16669;SDS011;8448;52.034;5.158;2022-07-23T12:22:47;3.30;;;2.17;;
16669;SDS011;8448;52.034;5.158;2022-07-23T12:25:16;2.55;;;2.08;;
16669;SDS011;8448;52.034;5.158;2022-07-23T12:27:44;4.63;;;2.70;;
16669;SDS011;8448;52.034;5.158;2022-07-23T12:30:19;3.72;;;2.63;;
16669;SDS011;8448;52.034;5.158;2022-07-23T12:32:50;3.05;;;2.20;;
16669;SDS011;8448;52.034;5.158;2022-07-23T12:35:18;3.50;;;1.90;;
16669;SDS011;8448;52.034;5.158;2022-07-23T12:37:47;3.38;;;2.00;;
16669;SDS011;8448;52.034;5.158;2022-07-23T12:43:04;3.47;;;2.22;;
16669;SDS011;8448;52.034;5.158;2022-07-23T12:45:42;3.67;;;2.45;;
16669;SDS011;8448;52.034;5.158;2022-07-23T12:48:19;2.67;;;2.30;;
16669;SDS011;8448;52.034;5.158;2022-07-23T12:50:49;3.55;;;2.22;;
16669;SDS011;8448;52.034;5.158;2022-07-23T12:53:19;2.78;;;2.40;;
16669;SDS011;8448;52.034;5.158;2022-07-23T12:55:48;3.22;;;2.40;;
16669;SDS011;8448;52.034;5.158;2022-07-23T12:58:16;3.42;;;3.00;;
16669;SDS011;8448;52.034;5.158;2022-07-23T13:00:54;2.55;;;2.35;;
16669;SDS011;8448;52.034;5.158;2022-07-23T13:03:28;2.75;;;2.30;;
16669;SDS011;8448;52.034;5.158;2022-07-23T13:05:57;4.43;;;2.60;;
16669;SDS011;8448;52.034;5.158;2022-07-23T13:08:26;2.30;;;2.10;;
16669;SDS011;8448;52.034;5.158;2022-07-23T13:10:55;3.05;;;2.40;;
16669;SDS011;8448;52.034;5.158;2022-07-23T13:13:23;3.35;;;2.40;;
16669;SDS011;8448;52.034;5.158;2022-07-23T13:15:51;2.45;;;2.25;;
16669;SDS011;8448;52.034;5.158;2022-07-23T13:18:19;3.05;;;2.65;;
16669;SDS011;8448;52.034;5.158;2022-07-23T13:20:49;2.20;;;2.00;;
16669;SDS011;8448;52.034;5.158;2022-07-23T13:23:16;3.45;;;2.42;;
16669;SDS011;8448;52.034;5.158;2022-07-23T13:25:44;2.40;;;2.20;;
16669;SDS011;8448;52.034;5.158;2022-07-23T13:28:12;3.00;;;2.42;;
16669;SDS011;8448;52.034;5.158;2022-07-23T13:30:39;2.63;;;2.33;;
16669;SDS011;8448;52.034;5.158;2022-07-23T13:33:07;2.67;;;2.20;;
16669;SDS011;8448;52.034;5.158;2022-07-23T13:35:35;3.38;;;2.30;;
16669;SDS011;8448;52.034;5.158;2022-07-23T13:38:04;2.53;;;2.20;;
16669;SDS011;8448;52.034;5.158;2022-07-23T13:40:33;4.22;;;2.30;;
16669;SDS011;8448;52.034;5.158;2022-07-23T13:43:03;2.50;;;2.30;;
16669;SDS011;8448;52.034;5.158;2022-07-23T13:45:31;3.42;;;2.75;;
16669;SDS011;8448;52.034;5.158;2022-07-23T13:47:59;3.30;;;2.70;;
16669;SDS011;8448;52.034;5.158;2022-07-23T13:50:26;2.28;;;2.08;;
16669;SDS011;8448;52.034;5.158;2022-07-23T13:52:53;2.50;;;2.30;;
16669;SDS011;8448;52.034;5.158;2022-07-23T13:55:22;5.70;;;2.00;;
16669;SDS011;8448;52.034;5.158;2022-07-23T13:57:49;2.22;;;2.03;;
16669;SDS011;8448;52.034;5.158;2022-07-23T14:00:17;2.53;;;2.33;;
16669;SDS011;8448;52.034;5.158;2022-07-23T14:02:44;2.72;;;2.20;;
16669;SDS011;8448;52.034;5.158;2022-07-23T14:05:11;3.15;;;2.63;;
16669;SDS011;8448;52.034;5.158;2022-07-23T14:07:39;3.15;;;2.05;;
16669;SDS011;8448;52.034;5.158;2022-07-23T14:10:08;4.03;;;1.83;;
16669;SDS011;8448;52.034;5.158;2022-07-23T14:12:37;2.53;;;2.10;;
16669;SDS011;8448;52.034;5.158;2022-07-23T14:15:05;3.83;;;2.15;;
16669;SDS011;8448;52.034;5.158;2022-07-23T14:17:34;2.78;;;2.25;;
16669;SDS011;8448;52.034;5.158;2022-07-23T14:20:02;2.63;;;1.83;;
16669;SDS011;8448;52.034;5.158;2022-07-23T14:22:30;3.97;;;2.20;;
16669;SDS011;8448;52.034;5.158;2022-07-23T14:24:57;2.35;;;2.15;;
16669;SDS011;8448;52.034;5.158;2022-07-23T14:27:25;3.53;;;2.15;;
16669;SDS011;8448;52.034;5.158;2022-07-23T14:29:55;3.72;;;2.10;;
16669;SDS011;8448;52.034;5.158;2022-07-23T14:32:23;3.50;;;2.33;;
16669;SDS011;8448;52.034;5.158;2022-07-23T14:34:50;2.67;;;2.25;;
16669;SDS011;8448;52.034;5.158;2022-07-23T14:37:17;2.45;;;2.22;;
16669;SDS011;8448;52.034;5.158;2022-07-23T14:39:45;3.13;;;2.35;;
16669;SDS011;8448;52.034;5.158;2022-07-23T14:42:13;4.18;;;2.42;;
16669;SDS011;8448;52.034;5.158;2022-07-23T14:44:40;2.60;;;2.17;;
16669;SDS011;8448;52.034;5.158;2022-07-23T14:47:09;2.85;;;2.53;;
16669;SDS011;8448;52.034;5.158;2022-07-23T14:49:37;4.35;;;2.60;;
16669;SDS011;8448;52.034;5.158;2022-07-23T14:52:04;2.90;;;2.60;;
16669;SDS011;8448;52.034;5.158;2022-07-23T14:54:32;3.20;;;2.85;;
16669;SDS011;8448;52.034;5.158;2022-07-23T14:57:00;2.60;;;2.40;;
16669;SDS011;8448;52.034;5.158;2022-07-23T14:59:28;3.30;;;1.90;;
16669;SDS011;8448;52.034;5.158;2022-07-23T15:01:56;3.72;;;2.00;;
16669;SDS011;8448;52.034;5.158;2022-07-23T15:04:25;3.10;;;2.20;;
16669;SDS011;8448;52.034;5.158;2022-07-23T15:06:52;2.47;;;2.28;;
16669;SDS011;8448;52.034;5.158;2022-07-23T15:09:19;2.53;;;2.33;;
16669;SDS011;8448;52.034;5.158;2022-07-23T15:11:47;2.42;;;2.20;;
16669;SDS011;8448;52.034;5.158;2022-07-23T15:14:14;3.25;;;2.22;;
16669;SDS011;8448;52.034;5.158;2022-07-23T15:16:41;3.42;;;2.20;;
16669;SDS011;8448;52.034;5.158;2022-07-23T15:19:08;3.20;;;2.50;;
16669;SDS011;8448;52.034;5.158;2022-07-23T15:21:37;2.40;;;2.20;;
16669;SDS011;8448;52.034;5.158;2022-07-23T15:24:04;4.85;;;3.03;;
16669;SDS011;8448;52.034;5.158;2022-07-23T15:26:32;4.07;;;2.20;;
16669;SDS011;8448;52.034;5.158;2022-07-23T15:28:59;3.38;;;2.17;;